VTSP/HKT METAR and TAF weather

Enter ICAO airport designator
Station Type Date Time Source
VTSP METAR 2019/04/18 15:00 UTC NOAA

VTSP 181500Z 33004KT 260V020 9000 FEW018CB 29/25 Q1011 NOSIG


Station Type Date Time Source
VTSP Decoded METAR 2019/04/18 15:00 UTC NOAA

Phuket Airport, Thailand (VTSP) 08-07N 098-19E 10M
Apr 18, 2019 - 11:00 AM EDT / 2019.04.18 1500 UTC
Wind: from the NNW (330 degrees) at 5 MPH (4 KT) (direction variable):0
Visibility: 5 mile(s):0
Sky conditions: mostly clear
Weather: Cumulonimbus clouds observed
Temperature: 84 F (29 C)
Dew Point: 77 F (25 C)
Relative Humidity: 79%
Pressure (altimeter): 29.85 in. Hg (1011 hPa)
ob: VTSP 181500Z 33004KT 260V020 9000 FEW018CB 29/25 Q1011 NOSIG
cycle: 15

Station Type Date Time Source
VTSP TAF 2019/04/18 12:37 UTC NOAA

TAF VTSP 181100Z 1812/1918 28010KT 9000 FEW020
BECMG 1813/1815 00000KT
TEMPO 1815/1819 VRB10G20KT 5000 TSRA FEW018CB BKN020
BECMG 1901/1903 28010KT 9999

Example: see airport list